Time;durP1;ratioP1;P1;durP2;ratioP2;P2;SDS_P1;SDS_P2;PMS_P1;PMS_P2;Temp;Humidity;BMP_temperature;BMP_pressure;BME280_temperature;BME280_humidity;BME280_pressure;Samples;Min_cycle;Max_cycle;Signal;HPM_P1;HPM_P2
2022/12/10 00:01:59;;;;;;;;;;;-1.10;99.90;;;;;;5032550;28;206844;-70
2022/12/10 00:04:25;;;;;;;;;;;-1.10;99.90;;;;;;5030436;28;19943;-69
2022/12/10 00:06:51;;;;;;;;;;;-1.10;99.90;;;;;;5052594;28;239988;-69
2022/12/10 00:09:18;;;;;;;;;;;-1.20;99.90;;;;;;5065498;28;19928;-69
2022/12/10 00:11:44;;;;;;;;;;;-1.20;99.90;;;;;;5047945;28;208691;-68
2022/12/10 00:14:11;;;;;;;;;;;-1.20;99.90;;;;;;5027043;28;54254;-69
2022/12/10 00:16:37;;;;;;;;;;;-1.20;99.90;;;;;;5061112;28;19939;-69
2022/12/10 00:19:03;;;;;;;;;;;-1.20;99.90;;;;;;5020726;28;214022;-68
2022/12/10 00:21:30;;;;;;;;;;;-1.20;99.90;;;;;;5060355;28;19947;-68
2022/12/10 00:23:57;;;;;;;;;;;-1.20;99.90;;;;;;5021825;28;207624;-68
2022/12/10 00:26:30;;;;;;;;;;;-1.30;99.90;;;;;;5060766;28;20392;-68
2022/12/10 00:28:56;;;;;;;;;;;-1.20;99.90;;;;;;5020762;28;132031;-68
2022/12/10 00:31:24;;;;;;;;;;;-1.30;99.90;;;;;;5063454;28;19939;-69
2022/12/10 00:33:50;;;;;;;;;;;-1.30;99.90;;;;;;4980404;28;213447;-70
2022/12/10 00:36:20;;;;;;;;;;;-1.30;99.90;;;;;;5065227;28;20423;-69
2022/12/10 00:38:47;;;;;;;;;;;-1.30;99.90;;;;;;4999515;28;207842;-69
2022/12/10 00:41:13;;;;;;;;;;;-1.30;99.90;;;;;;5097723;28;19921;-68
2022/12/10 00:43:39;;;;;;;;;;;-1.30;99.90;;;;;;5011874;28;181403;-69
2022/12/10 00:46:06;;;;;;;;;;;-1.30;99.90;;;;;;5061350;28;20271;-69
2022/12/10 00:48:32;;;;;;;;;;;-1.30;99.90;;;;;;5002626;28;154107;-69
2022/12/10 00:51:09;;;;;;;;;;;-1.30;99.90;;;;;;5045882;28;19924;-69
2022/12/10 00:53:36;;;;;;;;;;;-1.30;99.90;;;;;;5020298;28;114662;-69
2022/12/10 00:56:03;;;;;;;;;;;-1.30;99.90;;;;;;5074577;28;19920;-69
2022/12/10 00:58:30;;;;;;;;;;;-1.30;99.90;;;;;;5003466;28;206679;-69
2022/12/10 01:01:14;;;;;;;;;;;-1.30;99.90;;;;;;5063342;28;19929;-69
2022/12/10 01:03:41;;;;;;;;;;;-1.40;99.90;;;;;;4999215;28;180245;-69
2022/12/10 01:06:12;;;;;;;;;;;-1.40;99.90;;;;;;5093682;27;20309;-68
2022/12/10 01:08:38;;;;;;;;;;;-1.40;99.90;;;;;;5008402;28;142140;-69
2022/12/10 01:11:05;;;;;;;;;;;-1.40;99.90;;;;;;5070859;28;19920;-68
2022/12/10 01:13:31;;;;;;;;;;;-1.40;99.90;;;;;;5025935;27;148116;-68
2022/12/10 01:15:59;;;;;;;;;;;-1.30;99.90;;;;;;5072344;28;19920;-69
2022/12/10 01:18:25;;;;;;;;;;;-1.40;99.90;;;;;;5022420;28;124215;-69
2022/12/10 01:20:51;;;;;;;;;;;-1.40;99.90;;;;;;5064292;28;19921;-69
2022/12/10 01:23:17;;;;;;;;;;;-1.40;99.90;;;;;;5013916;28;207671;-68
2022/12/10 01:25:43;;;;;;;;;;;-1.40;99.90;;;;;;5055963;28;19994;-69
2022/12/10 01:28:09;;;;;;;;;;;-1.40;99.90;;;;;;5020453;28;176298;-69
2022/12/10 01:30:35;;;;;;;;;;;-1.40;99.90;;;;;;5064358;28;19933;-69
2022/12/10 01:33:01;;;;;;;;;;;-1.40;99.90;;;;;;4999055;28;129881;-70
2022/12/10 01:35:27;;;;;;;;;;;-1.40;99.90;;;;;;5053930;28;19924;-69
2022/12/10 01:37:53;;;;;;;;;;;-1.40;99.90;;;;;;5010815;28;134200;-70
2022/12/10 01:40:19;;;;;;;;;;;-1.40;99.90;;;;;;5053362;28;19924;-69
2022/12/10 01:42:45;;;;;;;;;;;-1.40;99.90;;;;;;5012993;28;206653;-70
2022/12/10 01:45:12;;;;;;;;;;;-1.40;99.90;;;;;;5063276;28;19928;-69
2022/12/10 01:47:38;;;;;;;;;;;-1.40;99.90;;;;;;5028318;28;206847;-68
2022/12/10 01:50:06;;;;;;;;;;;-1.40;99.90;;;;;;5044196;28;19925;-68
2022/12/10 01:52:32;;;;;;;;;;;-1.50;99.90;;;;;;5025445;28;108301;-69
2022/12/10 01:54:58;;;;;;;;;;;-1.40;99.90;;;;;;5064332;28;19935;-69
2022/12/10 01:57:26;;;;;;;;;;;-1.40;99.90;;;;;;5012533;28;165771;-68
2022/12/10 01:59:57;;;;;;;;;;;-1.40;99.90;;;;;;5038006;28;19939;-69
2022/12/10 02:02:42;;;;;;;;;;;-1.40;99.90;;;;;;4999177;28;171342;-69
2022/12/10 02:05:08;;;;;;;;;;;-1.50;99.90;;;;;;5026740;28;19935;-69
2022/12/10 02:08:03;;;;;;;;;;;-1.40;99.90;;;;;;5008962;28;184205;-68
2022/12/10 02:10:29;;;;;;;;;;;-1.50;99.90;;;;;;5004640;28;19939;-69
2022/12/10 02:13:01;;;;;;;;;;;-1.50;99.90;;;;;;4986698;28;207230;-68
2022/12/10 02:15:30;;;;;;;;;;;-1.50;99.90;;;;;;5008132;28;19925;-68
2022/12/10 02:18:16;;;;;;;;;;;-1.50;99.90;;;;;;4998289;28;205509;-69
2022/12/10 02:20:45;;;;;;;;;;;-1.60;99.90;;;;;;5024214;28;19924;-68
2022/12/10 02:23:21;;;;;;;;;;;-1.60;99.90;;;;;;5002306;28;207259;-69
2022/12/10 02:25:56;;;;;;;;;;;-1.50;99.90;;;;;;5026458;28;19925;-69
2022/12/10 02:28:30;;;;;;;;;;;-1.60;99.90;;;;;;4970597;28;216732;-69
2022/12/10 02:30:56;;;;;;;;;;;-1.60;99.90;;;;;;5042537;28;19944;-70
2022/12/10 02:33:23;;;;;;;;;;;-1.60;99.90;;;;;;4996665;28;168935;-69
2022/12/10 02:35:50;;;;;;;;;;;-1.60;99.90;;;;;;5042610;28;19925;-69
2022/12/10 02:38:23;;;;;;;;;;;-1.60;99.90;;;;;;4993055;28;179586;-69
2022/12/10 02:40:56;;;;;;;;;;;-1.60;99.90;;;;;;5024590;28;19920;-68
2022/12/10 02:43:23;;;;;;;;;;;-1.60;99.90;;;;;;5003957;28;213340;-69
2022/12/10 02:45:50;;;;;;;;;;;-1.60;99.90;;;;;;5025395;28;19928;-69
2022/12/10 02:48:16;;;;;;;;;;;-1.60;99.90;;;;;;4997882;28;147524;-69
2022/12/10 02:50:42;;;;;;;;;;;-1.60;99.90;;;;;;5039419;28;20381;-69
2022/12/10 02:53:08;;;;;;;;;;;-1.60;99.90;;;;;;5000589;28;122071;-70
2022/12/10 02:56:00;;;;;;;;;;;-1.60;99.90;;;;;;5058143;28;19947;-69
2022/12/10 02:58:45;;;;;;;;;;;-1.70;99.90;;;;;;5006863;28;160257;-68
2022/12/10 03:01:16;;;;;;;;;;;-1.70;99.90;;;;;;5068971;28;19920;-69
2022/12/10 03:03:42;;;;;;;;;;;-1.70;99.90;;;;;;5028027;28;72857;-69
2022/12/10 03:06:21;;;;;;;;;;;-1.70;99.90;;;;;;5100788;27;20378;-68
2022/12/10 03:08:52;;;;;;;;;;;-1.70;99.90;;;;;;4996041;28;207039;-69
2022/12/10 03:11:19;;;;;;;;;;;-1.80;99.90;;;;;;5067929;28;20459;-69
2022/12/10 03:13:58;;;;;;;;;;;-1.80;99.90;;;;;;5018054;28;123890;-69
2022/12/10 03:16:26;;;;;;;;;;;-1.80;99.90;;;;;;5067679;28;19924;-70
2022/12/10 03:18:54;;;;;;;;;;;-1.80;99.90;;;;;;5013380;28;211747;-69
2022/12/10 03:21:20;;;;;;;;;;;-1.80;99.90;;;;;;5065113;28;19931;-69
2022/12/10 03:23:47;;;;;;;;;;;-1.90;99.90;;;;;;5026309;28;142024;-69
2022/12/10 03:26:14;;;;;;;;;;;-1.90;99.90;;;;;;5065321;28;19921;-68
2022/12/10 03:28:41;;;;;;;;;;;-1.90;99.90;;;;;;5028793;28;50607;-69
2022/12/10 03:31:08;;;;;;;;;;;-1.90;99.90;;;;;;5076372;28;19936;-69
2022/12/10 03:33:34;;;;;;;;;;;-1.90;99.90;;;;;;5036761;28;205954;-69
2022/12/10 03:36:01;;;;;;;;;;;-1.90;99.90;;;;;;5063207;28;19977;-69
2022/12/10 03:38:27;;;;;;;;;;;-1.90;99.90;;;;;;5004552;28;195203;-69
2022/12/10 03:40:53;;;;;;;;;;;-1.90;99.90;;;;;;5058979;28;19987;-69
2022/12/10 03:43:20;;;;;;;;;;;-1.90;99.90;;;;;;5011688;28;116080;-68
2022/12/10 03:45:46;;;;;;;;;;;-1.90;99.90;;;;;;5054046;28;20558;-70
2022/12/10 03:48:12;;;;;;;;;;;-1.90;99.90;;;;;;5014474;28;139657;-69
2022/12/10 03:50:38;;;;;;;;;;;-1.90;99.90;;;;;;5043076;28;19932;-70
2022/12/10 03:53:04;;;;;;;;;;;-1.90;99.90;;;;;;5017109;27;207910;-69
2022/12/10 03:55:30;;;;;;;;;;;-2.00;99.90;;;;;;5057064;28;19993;-68
2022/12/10 03:57:56;;;;;;;;;;;-2.00;99.90;;;;;;5004375;28;210031;-68
2022/12/10 04:00:22;;;;;;;;;;;-2.00;99.90;;;;;;5058542;28;19928;-69
2022/12/10 04:02:48;;;;;;;;;;;-2.00;99.90;;;;;;4986046;28;126902;-70
2022/12/10 04:05:14;;;;;;;;;;;-2.00;99.90;;;;;;5045259;28;19920;-69
2022/12/10 04:07:40;;;;;;;;;;;-2.00;99.90;;;;;;5003658;28;138013;-70
2022/12/10 04:10:06;;;;;;;;;;;-2.00;99.90;;;;;;5044010;28;19930;-70
2022/12/10 04:12:32;;;;;;;;;;;-2.00;99.90;;;;;;5007810;28;138330;-70
2022/12/10 04:17:42;;;;;;;;;;;-2.00;99.90;;;;;;5009198;28;201638;-70
2022/12/10 04:26:51;;;;;;;;;;;-2.00;99.90;;;;;;5045752;28;19968;-70
2022/12/10 04:28:24;;;;;;;;;;;-2.00;99.90;;;;;;5025518;28;143972;-69
2022/12/10 04:30:50;;;;;;;;;;;-2.00;99.90;;;;;;5074390;28;20398;-69
2022/12/10 04:33:16;;;;;;;;;;;-2.00;99.90;;;;;;5037195;28;206967;-71
2022/12/10 04:35:42;;;;;;;;;;;-2.00;99.90;;;;;;5063014;28;19925;-68
2022/12/10 04:38:08;;;;;;;;;;;-1.90;99.90;;;;;;5026966;28;213161;-68
2022/12/10 04:40:34;;;;;;;;;;;-2.00;99.90;;;;;;5062932;28;19921;-69
2022/12/10 04:43:00;;;;;;;;;;;-2.00;99.90;;;;;;5015388;28;213003;-70
2022/12/10 04:45:26;;;;;;;;;;;-2.00;99.90;;;;;;5069669;28;19924;-71
2022/12/10 04:47:52;;;;;;;;;;;-2.10;99.90;;;;;;5015066;28;186756;-70
2022/12/10 04:50:18;;;;;;;;;;;-2.00;99.90;;;;;;5078617;28;20388;-70
2022/12/10 04:52:44;;;;;;;;;;;-2.10;99.90;;;;;;5022280;28;181000;-70
2022/12/10 04:55:10;;;;;;;;;;;-2.20;99.90;;;;;;5047916;28;20012;-69
2022/12/10 04:57:36;;;;;;;;;;;-2.20;99.90;;;;;;5027912;28;101372;-69
2022/12/10 05:00:02;;;;;;;;;;;-2.20;99.90;;;;;;5067178;28;19921;-68
2022/12/10 05:02:28;;;;;;;;;;;-2.20;99.90;;;;;;5006756;28;173117;-69
2022/12/10 05:04:54;;;;;;;;;;;-2.30;99.90;;;;;;5055363;28;19928;-69
2022/12/10 05:07:20;;;;;;;;;;;-2.30;99.90;;;;;;5029614;28;211947;-70
2022/12/10 05:09:46;;;;;;;;;;;-2.30;99.90;;;;;;5058458;28;19924;-69
2022/12/10 05:12:13;;;;;;;;;;;-2.30;99.90;;;;;;5000636;28;206260;-70
2022/12/10 05:14:39;;;;;;;;;;;-2.20;99.90;;;;;;5064821;28;19929;-70
2022/12/10 05:17:05;;;;;;;;;;;-2.30;99.90;;;;;;5024547;28;129247;-70
2022/12/10 05:19:31;;;;;;;;;;;-2.30;99.90;;;;;;5067214;28;19924;-70
2022/12/10 05:24:42;;;;;;;;;;;-2.30;99.90;;;;;;5060138;28;19920;-69
2022/12/10 05:27:08;;;;;;;;;;;-2.30;99.90;;;;;;5024124;28;120061;-70
2022/12/10 05:29:34;;;;;;;;;;;-2.30;99.90;;;;;;5062582;28;19929;-70
2022/12/10 05:32:00;;;;;;;;;;;-2.30;99.90;;;;;;5016792;28;217996;-70
2022/12/10 05:34:26;;;;;;;;;;;-2.30;99.90;;;;;;5045380;28;19921;-69
2022/12/10 05:36:52;;;;;;;;;;;-2.30;99.90;;;;;;5018212;27;207730;-70
2022/12/10 05:39:18;;;;;;;;;;;-2.30;99.90;;;;;;5056897;28;19927;-70
2022/12/10 05:41:45;;;;;;;;;;;-2.20;99.90;;;;;;5050625;27;215250;-70
2022/12/10 05:44:11;;;;;;;;;;;-2.20;99.90;;;;;;5007631;28;253725;-70
2022/12/10 05:46:37;;;;;;;;;;;-2.20;99.90;;;;;;5101005;27;19932;-70
2022/12/10 05:49:04;;;;;;;;;;;-2.20;99.90;;;;;;4983031;28;193819;-70
2022/12/10 05:51:31;;;;;;;;;;;-2.10;99.90;;;;;;5066953;28;20484;-69
2022/12/10 05:53:58;;;;;;;;;;;-2.10;99.90;;;;;;5000635;28;135358;-70
2022/12/10 05:56:25;;;;;;;;;;;-2.10;99.90;;;;;;5073244;28;19924;-70
2022/12/10 05:58:52;;;;;;;;;;;-2.10;99.90;;;;;;5020716;28;206215;-69
2022/12/10 06:01:19;;;;;;;;;;;-2.00;99.90;;;;;;5064416;28;19928;-69
2022/12/10 06:03:45;;;;;;;;;;;-2.00;99.90;;;;;;5013365;28;209422;-70
2022/12/10 06:06:12;;;;;;;;;;;-2.00;99.90;;;;;;5063034;28;19924;-69
2022/12/10 06:08:38;;;;;;;;;;;-2.00;99.90;;;;;;5021296;27;205890;-71
2022/12/10 06:11:05;;;;;;;;;;;-2.00;99.90;;;;;;5063950;28;20383;-70
2022/12/10 06:13:31;;;;;;;;;;;-2.00;99.90;;;;;;5007494;28;159627;-70
2022/12/10 06:15:57;;;;;;;;;;;-2.00;99.90;;;;;;5046703;28;19921;-70
2022/12/10 06:18:23;;;;;;;;;;;-1.90;99.90;;;;;;5015786;28;105366;-70
2022/12/10 06:20:49;;;;;;;;;;;-1.90;99.90;;;;;;5064288;28;19924;-70
2022/12/10 06:23:15;;;;;;;;;;;-1.90;99.90;;;;;;5014261;28;208877;-70
2022/12/10 06:25:41;;;;;;;;;;;-1.90;99.90;;;;;;5069631;28;19920;-70
2022/12/10 06:28:08;;;;;;;;;;;-1.90;99.90;;;;;;5015440;28;169932;-70
2022/12/10 06:30:34;;;;;;;;;;;-1.90;99.90;;;;;;5066975;28;19925;-70
2022/12/10 06:33:00;;;;;;;;;;;-1.90;99.90;;;;;;5021310;28;150439;-70
2022/12/10 06:35:26;;;;;;;;;;;-1.90;99.90;;;;;;5053835;28;20448;-70
2022/12/10 06:37:52;;;;;;;;;;;-1.90;99.90;;;;;;5037123;27;118430;-69
2022/12/10 06:40:18;;;;;;;;;;;-1.90;99.90;;;;;;5066252;28;19924;-70
2022/12/10 06:42:44;;;;;;;;;;;-1.90;99.90;;;;;;5039457;28;191267;-70
2022/12/10 06:45:11;;;;;;;;;;;-1.90;99.90;;;;;;5061788;28;19924;-69
2022/12/10 06:47:37;;;;;;;;;;;-1.90;99.90;;;;;;5021716;28;189444;-70
2022/12/10 06:50:03;;;;;;;;;;;-2.00;99.90;;;;;;5062170;28;19928;-70
2022/12/10 06:52:29;;;;;;;;;;;-1.90;99.90;;;;;;5019138;28;208822;-71
2022/12/10 06:54:56;;;;;;;;;;;-1.90;99.90;;;;;;5059565;28;19928;-71
2022/12/10 06:57:22;;;;;;;;;;;-1.90;99.90;;;;;;5033980;28;206478;-71
2022/12/10 06:59:48;;;;;;;;;;;-1.90;99.90;;;;;;5065505;28;19930;-70
2022/12/10 07:02:14;;;;;;;;;;;-1.90;99.90;;;;;;5012405;28;176101;-70
2022/12/10 07:04:39;;;;;;;;;;;-1.90;99.90;;;;;;5068444;28;19928;-70
2022/12/10 07:07:06;;;;;;;;;;;-1.90;99.90;;;;;;5014826;28;206667;-70
2022/12/10 07:09:32;;;;;;;;;;;-1.90;99.90;;;;;;5066254;28;19929;-70
2022/12/10 07:11:58;;;;;;;;;;;-1.90;99.90;;;;;;5015106;28;208597;-71
2022/12/10 07:14:24;;;;;;;;;;;-1.90;99.90;;;;;;5062888;28;20037;-69
2022/12/10 07:16:50;;;;;;;;;;;-1.90;99.90;;;;;;5018160;28;236722;-70
2022/12/10 07:19:16;;;;;;;;;;;-1.90;99.90;;;;;;5078073;28;19920;-70
2022/12/10 07:21:43;;;;;;;;;;;-1.90;99.90;;;;;;5056406;28;204084;-70
2022/12/10 07:24:10;;;;;;;;;;;-1.90;99.90;;;;;;4994390;28;26225;-70
2022/12/10 07:26:37;;;;;;;;;;;-1.90;99.90;;;;;;5075728;28;19943;-70
2022/12/10 07:29:04;;;;;;;;;;;-1.90;99.90;;;;;;5001958;28;191076;-70
2022/12/10 07:31:30;;;;;;;;;;;-1.90;99.90;;;;;;5070351;28;19939;-71
2022/12/10 07:33:57;;;;;;;;;;;-1.90;99.90;;;;;;5016010;28;201636;-70
2022/12/10 07:36:23;;;;;;;;;;;-1.90;99.90;;;;;;5070496;28;19924;-71
2022/12/10 07:38:50;;;;;;;;;;;-1.90;99.90;;;;;;5011220;28;172717;-70
2022/12/10 07:41:17;;;;;;;;;;;-1.90;99.90;;;;;;5063284;28;19920;-71
2022/12/10 07:43:44;;;;;;;;;;;-1.90;99.90;;;;;;5017302;28;221259;-71
2022/12/10 07:46:12;;;;;;;;;;;-1.90;99.90;;;;;;5062813;28;20405;-71
2022/12/10 07:48:38;;;;;;;;;;;-1.90;99.90;;;;;;5027662;28;126268;-70
2022/12/10 07:51:04;;;;;;;;;;;-1.90;99.90;;;;;;5066874;28;19928;-71
2022/12/10 07:53:31;;;;;;;;;;;-1.90;99.90;;;;;;5027816;28;219339;-70
2022/12/10 07:55:56;;;;;;;;;;;-1.80;99.90;;;;;;5055090;28;19924;-70
2022/12/10 07:58:22;;;;;;;;;;;-1.90;99.90;;;;;;5036335;28;115197;-70
2022/12/10 08:00:48;;;;;;;;;;;-1.80;99.90;;;;;;5053506;28;19936;-70
2022/12/10 08:03:14;;;;;;;;;;;-1.90;99.90;;;;;;5013999;28;203443;-71
2022/12/10 08:05:41;;;;;;;;;;;-1.90;99.90;;;;;;5048591;28;19963;-71
2022/12/10 08:08:07;;;;;;;;;;;-1.80;99.90;;;;;;5007735;28;188962;-72
2022/12/10 08:10:33;;;;;;;;;;;-1.80;99.90;;;;;;5063381;28;19979;-71
2022/12/10 08:12:59;;;;;;;;;;;-1.80;99.90;;;;;;5034447;28;121010;-71
2022/12/10 08:15:27;;;;;;;;;;;-1.80;99.90;;;;;;5038352;28;19979;-71
2022/12/10 08:17:54;;;;;;;;;;;-1.80;99.90;;;;;;5003464;28;114653;-72
2022/12/10 08:20:20;;;;;;;;;;;-1.70;99.90;;;;;;5048236;28;19929;-70
2022/12/10 08:22:46;;;;;;;;;;;-1.70;99.90;;;;;;4996591;28;203535;-71
2022/12/10 08:25:12;;;;;;;;;;;-1.70;99.90;;;;;;5062876;28;19924;-70
2022/12/10 08:27:38;;;;;;;;;;;-1.60;99.90;;;;;;5033043;28;142828;-71
2022/12/10 08:30:04;;;;;;;;;;;-1.60;99.90;;;;;;5059673;28;19936;-71
2022/12/10 08:32:30;;;;;;;;;;;-1.60;99.90;;;;;;5001082;28;208622;-70
2022/12/10 08:34:56;;;;;;;;;;;-1.60;99.90;;;;;;5049492;28;19928;-71
2022/12/10 08:37:22;;;;;;;;;;;-1.60;99.90;;;;;;5011524;28;182295;-71
2022/12/10 08:39:48;;;;;;;;;;;-1.60;99.90;;;;;;5062556;28;20298;-70
2022/12/10 08:42:14;;;;;;;;;;;-1.60;99.90;;;;;;5012644;28;99764;-70
2022/12/10 08:44:40;;;;;;;;;;;-1.60;99.90;;;;;;5059877;28;19928;-70
2022/12/10 08:47:06;;;;;;;;;;;-1.50;99.90;;;;;;5019361;28;103163;-71
2022/12/10 08:49:32;;;;;;;;;;;-1.50;99.90;;;;;;5052355;28;20490;-71
2022/12/10 08:51:58;;;;;;;;;;;-1.50;99.90;;;;;;5029400;28;218746;-70
2022/12/10 08:54:24;;;;;;;;;;;-1.50;99.90;;;;;;5056996;28;20354;-70
2022/12/10 08:56:50;;;;;;;;;;;-1.50;99.90;;;;;;5063086;28;212148;-69
2022/12/10 08:59:16;;;;;;;;;;;-1.50;99.90;;;;;;5066358;28;19929;-69
2022/12/10 09:01:42;;;;;;;;;;;-1.50;99.90;;;;;;5052480;28;208409;-69
2022/12/10 09:04:09;;;;;;;;;;;-1.50;99.90;;;;;;4998822;28;114720;-70
2022/12/10 09:06:35;;;;;;;;;;;-1.50;99.90;;;;;;5040015;28;19940;-70
2022/12/10 09:09:01;;;;;;;;;;;-1.40;99.90;;;;;;5010959;28;158790;-70
2022/12/10 09:11:29;;;;;;;;;;;-1.40;99.90;;;;;;5041302;28;19935;-70
2022/12/10 09:13:55;;;;;;;;;;;-1.40;99.90;;;;;;4995864;28;208933;-70
2022/12/10 09:16:21;;;;;;;;;;;-1.30;99.90;;;;;;5059893;28;19964;-71
2022/12/10 09:18:48;;;;;;;;;;;-1.40;99.90;;;;;;5020223;28;43456;-70
2022/12/10 09:21:15;;;;;;;;;;;-1.40;99.90;;;;;;5047843;28;19925;-70
2022/12/10 09:23:41;;;;;;;;;;;-1.30;99.90;;;;;;5016710;28;61343;-70
2022/12/10 09:26:09;;;;;;;;;;;-1.30;99.90;;;;;;5045330;28;19928;-69
2022/12/10 09:28:36;;;;;;;;;;;-1.30;99.90;;;;;;5023354;28;130453;-69
2022/12/10 09:31:03;;;;;;;;;;;-1.30;99.90;;;;;;5065450;28;19928;-70
2022/12/10 09:33:30;;;;;;;;;;;-1.30;99.90;;;;;;5001442;28;207544;-69
2022/12/10 09:35:56;;;;;;;;;;;-1.30;99.90;;;;;;5054018;28;19924;-70
2022/12/10 09:38:23;;;;;;;;;;;-1.20;99.90;;;;;;5027071;28;211317;-71
2022/12/10 09:40:55;;;;;;;;;;;-1.20;99.90;;;;;;5048038;28;19921;-71
2022/12/10 09:43:27;;;;;;;;;;;-1.20;99.90;;;;;;5000447;28;44421;-70
2022/12/10 09:45:53;;;;;;;;;;;-1.10;99.90;;;;;;5071236;28;19940;-71
2022/12/10 09:48:19;;;;;;;;;;;-1.10;99.90;;;;;;5013305;28;208711;-70
2022/12/10 09:50:55;;;;;;;;;;;-1.10;99.90;;;;;;5064666;28;20007;-70
2022/12/10 09:53:22;;;;;;;;;;;-1.10;99.90;;;;;;5012170;28;165071;-70
2022/12/10 09:55:48;;;;;;;;;;;-1.10;99.90;;;;;;5061516;28;19924;-71
2022/12/10 09:58:18;;;;;;;;;;;-1.10;99.90;;;;;;5007602;28;134924;-72
2022/12/10 10:00:46;;;;;;;;;;;-1.10;99.90;;;;;;5059109;28;19928;-70
2022/12/10 10:03:12;;;;;;;;;;;-1.10;99.90;;;;;;4991023;28;160339;-70
2022/12/10 10:05:41;;;;;;;;;;;-1.10;99.90;;;;;;5055771;28;20741;-70
2022/12/10 10:08:17;;;;;;;;;;;-1.10;99.90;;;;;;5035438;27;208998;-71
2022/12/10 10:10:44;;;;;;;;;;;-1.10;99.90;;;;;;5062608;28;19925;-71
2022/12/10 10:13:12;;;;;;;;;;;-1.10;99.90;;;;;;4999238;28;189742;-71
2022/12/10 10:15:43;;;;;;;;;;;-1.10;99.90;;;;;;5052229;28;19963;-71
2022/12/10 10:18:09;;;;;;;;;;;-1.00;99.90;;;;;;5003716;28;211279;-71
2022/12/10 10:20:35;;;;;;;;;;;-1.00;99.90;;;;;;5056978;28;19924;-71
2022/12/10 10:23:01;;;;;;;;;;;-1.00;99.90;;;;;;5046789;28;117531;-71
2022/12/10 10:25:28;;;;;;;;;;;-1.00;99.90;;;;;;5043190;28;19925;-71
2022/12/10 10:27:55;;;;;;;;;;;-1.00;99.90;;;;;;5019050;28;113218;-71
2022/12/10 10:30:22;;;;;;;;;;;-0.90;99.90;;;;;;5060279;28;19935;-71
2022/12/10 10:32:51;;;;;;;;;;;-0.90;99.90;;;;;;5026251;28;209516;-72
2022/12/10 10:35:43;;;;;;;;;;;-0.90;99.90;;;;;;5027749;28;19924;-72
2022/12/10 10:38:18;;;;;;;;;;;-0.80;99.90;;;;;;5009881;28;207768;-72
2022/12/10 10:40:45;;;;;;;;;;;-0.80;99.90;;;;;;5061822;28;19931;-72
2022/12/10 10:43:35;;;;;;;;;;;-0.80;99.90;;;;;;5041982;28;199834;-73
2022/12/10 10:46:01;;;;;;;;;;;-0.70;99.90;;;;;;5036155;28;19925;-72
2022/12/10 10:48:28;;;;;;;;;;;-0.70;99.90;;;;;;5013996;28;169254;-72
2022/12/10 10:51:04;;;;;;;;;;;-0.80;99.90;;;;;;5067164;28;19928;-72
2022/12/10 10:53:43;;;;;;;;;;;-0.80;99.90;;;;;;5043465;27;139153;-72
2022/12/10 10:56:09;;;;;;;;;;;-0.80;99.90;;;;;;5059361;28;20369;-72
2022/12/10 10:58:36;;;;;;;;;;;-0.70;99.90;;;;;;5013478;28;209503;-73
2022/12/10 11:01:04;;;;;;;;;;;-0.70;99.90;;;;;;5056842;28;19928;-72
2022/12/10 11:03:32;;;;;;;;;;;-0.60;99.90;;;;;;5010752;28;215511;-72
2022/12/10 11:05:58;;;;;;;;;;;-0.50;99.90;;;;;;5059049;28;19920;-72
2022/12/10 11:08:25;;;;;;;;;;;-0.50;99.90;;;;;;5016514;28;120420;-72
2022/12/10 11:10:54;;;;;;;;;;;-0.50;99.90;;;;;;5061324;28;21428;-72
2022/12/10 11:13:28;;;;;;;;;;;-0.40;99.90;;;;;;4992315;28;215701;-73
2022/12/10 11:15:57;;;;;;;;;;;-0.40;99.90;;;;;;5042052;28;19940;-72
2022/12/10 11:18:29;;;;;;;;;;;-0.40;99.90;;;;;;5020082;28;218441;-72
2022/12/10 11:20:58;;;;;;;;;;;-0.40;99.90;;;;;;5085942;28;19925;-72
2022/12/10 11:23:26;;;;;;;;;;;-0.40;99.90;;;;;;4997384;28;206477;-72
2022/12/10 11:26:02;;;;;;;;;;;-0.50;99.90;;;;;;5066048;28;19928;-72
2022/12/10 11:28:43;;;;;;;;;;;-0.50;99.90;;;;;;5015879;28;206260;-72
2022/12/10 11:31:28;;;;;;;;;;;-0.50;99.90;;;;;;5090577;27;19928;-72
2022/12/10 11:34:06;;;;;;;;;;;-0.40;99.90;;;;;;5012316;28;154150;-73
2022/12/10 11:36:51;;;;;;;;;;;-0.50;99.90;;;;;;5072684;28;20329;-73
2022/12/10 11:39:17;;;;;;;;;;;-0.50;99.90;;;;;;5010062;28;211596;-73
2022/12/10 11:41:50;;;;;;;;;;;-0.40;99.90;;;;;;5044040;28;207600;-72
2022/12/10 11:44:22;;;;;;;;;;;-0.40;99.90;;;;;;4995245;28;19972;-73
2022/12/10 11:46:48;;;;;;;;;;;-0.40;99.90;;;;;;5013291;28;210332;-73
2022/12/10 11:49:21;;;;;;;;;;;-0.40;99.90;;;;;;5056378;28;19958;-73
2022/12/10 11:52:19;;;;;;;;;;;-0.40;99.90;;;;;;5039716;28;208853;-73
2022/12/10 11:54:53;;;;;;;;;;;-0.40;99.90;;;;;;4990579;28;19981;-73
2022/12/10 11:57:22;;;;;;;;;;;-0.40;99.90;;;;;;4965482;28;181060;-74
2022/12/10 12:00:02;;;;;;;;;;;-0.50;99.90;;;;;;5003542;28;19925;-74
2022/12/10 12:02:31;;;;;;;;;;;-0.50;99.90;;;;;;4950286;28;134922;-74
2022/12/10 12:05:00;;;;;;;;;;;-0.40;99.90;;;;;;4989340;28;19936;-74
2022/12/10 12:07:48;;;;;;;;;;;-0.50;99.90;;;;;;4959387;28;189683;-74
2022/12/10 12:10:26;;;;;;;;;;;-0.50;99.90;;;;;;5018005;28;19932;-74
2022/12/10 12:12:55;;;;;;;;;;;-0.50;99.90;;;;;;4959126;28;87640;-74
2022/12/10 12:15:27;;;;;;;;;;;-0.40;99.90;;;;;;5000156;28;19933;-74
2022/12/10 12:17:59;;;;;;;;;;;-0.30;99.90;;;;;;4971518;28;185014;-73
2022/12/10 12:20:34;;;;;;;;;;;-0.30;99.90;;;;;;4986787;28;19934;-73
2022/12/10 12:23:09;;;;;;;;;;;-0.30;99.90;;;;;;4975253;28;190032;-74
2022/12/10 12:25:37;;;;;;;;;;;-0.30;99.90;;;;;;5005100;28;19922;-73
2022/12/10 12:28:35;;;;;;;;;;;-0.30;99.90;;;;;;4947569;28;156219;-74
2022/12/10 12:31:20;;;;;;;;;;;-0.20;99.90;;;;;;4957994;28;19929;-74
2022/12/10 12:33:50;;;;;;;;;;;-0.30;99.90;;;;;;4939323;28;165595;-73
2022/12/10 12:36:15;;;;;;;;;;;-0.20;99.90;;;;;;4998818;28;19922;-74
2022/12/10 12:38:53;;;;;;;;;;;-0.30;99.90;;;;;;4947487;28;207730;-75
2022/12/10 12:41:39;;;;;;;;;;;-0.30;99.90;;;;;;5002839;28;19922;-75
2022/12/10 12:44:36;;;;;;;;;;;-0.20;99.90;;;;;;4950159;28;187212;-74
2022/12/10 12:47:25;;;;;;;;;;;-0.20;99.90;;;;;;4933201;28;215679;-74
2022/12/10 12:49:52;;;;;;;;;;;-0.20;99.90;;;;;;4998730;28;19945;-74
2022/12/10 12:52:37;;;;;;;;;;;-0.20;99.90;;;;;;4968984;28;100397;-74
2022/12/10 12:55:06;;;;;;;;;;;-0.20;99.90;;;;;;5009035;28;19929;-74
2022/12/10 12:57:45;;;;;;;;;;;-0.20;99.90;;;;;;4942496;28;165273;-74
2022/12/10 13:00:21;;;;;;;;;;;-0.30;99.90;;;;;;4996568;28;19932;-74
2022/12/10 13:02:53;;;;;;;;;;;-0.20;99.90;;;;;;4926633;28;205449;-74
2022/12/10 13:05:34;;;;;;;;;;;-0.20;99.90;;;;;;4974381;28;19957;-74
2022/12/10 13:08:20;;;;;;;;;;;-0.20;99.90;;;;;;5006949;28;190103;-74
2022/12/10 13:10:52;;;;;;;;;;;-0.20;99.90;;;;;;5047832;28;19931;-74
2022/12/10 13:13:27;;;;;;;;;;;-0.20;99.90;;;;;;5009480;28;224770;-74
2022/12/10 13:15:54;;;;;;;;;;;-0.20;99.90;;;;;;5050919;28;19928;-73
2022/12/10 13:18:23;;;;;;;;;;;-0.20;99.90;;;;;;4996413;28;174861;-74
2022/12/10 13:20:53;;;;;;;;;;;-0.30;99.90;;;;;;5056549;28;19928;-70
2022/12/10 13:23:25;;;;;;;;;;;-0.30;99.90;;;;;;5017313;28;149498;-73
2022/12/10 13:25:57;;;;;;;;;;;-0.20;99.90;;;;;;5058813;28;19929;-73
2022/12/10 13:28:26;;;;;;;;;;;-0.20;99.90;;;;;;5012740;28;208112;-72
2022/12/10 13:31:10;;;;;;;;;;;-0.20;99.90;;;;;;5050246;28;19936;-73
2022/12/10 13:33:47;;;;;;;;;;;-0.20;99.90;;;;;;5011340;28;180504;-73
2022/12/10 13:36:19;;;;;;;;;;;-0.20;99.90;;;;;;5101665;27;19921;-73
2022/12/10 13:38:57;;;;;;;;;;;-0.20;99.90;;;;;;5040892;28;209463;-72
2022/12/10 13:44:31;;;;;;;;;;;-0.20;99.90;;;;;;5031867;28;96907;-72
2022/12/10 13:46:59;;;;;;;;;;;-0.10;99.90;;;;;;5012077;28;210650;-71
2022/12/10 13:49:27;;;;;;;;;;;-0.20;99.90;;;;;;5088231;28;19948;-72
2022/12/10 13:51:56;;;;;;;;;;;-0.10;99.90;;;;;;5016411;28;218830;-74
2022/12/10 13:54:41;;;;;;;;;;;-0.10;99.90;;;;;;5078448;28;20516;-73
2022/12/10 13:57:15;;;;;;;;;;;-0.10;99.90;;;;;;5023282;28;132143;-73
2022/12/10 13:59:53;;;;;;;;;;;-0.10;99.90;;;;;;5069135;28;19928;-73
2022/12/10 14:02:37;;;;;;;;;;;-0.10;99.90;;;;;;5021864;28;146791;-73
2022/12/10 14:05:14;;;;;;;;;;;-0.10;99.90;;;;;;5070229;28;19924;-73
2022/12/10 14:07:43;;;;;;;;;;;-0.10;99.90;;;;;;5010773;28;208733;-72
2022/12/10 14:10:18;;;;;;;;;;;-0.20;99.90;;;;;;5052108;28;20007;-72
2022/12/10 14:12:44;;;;;;;;;;;-0.10;99.90;;;;;;5048835;28;155290;-73
2022/12/10 14:15:23;;;;;;;;;;;-0.10;99.90;;;;;;5038924;28;19920;-73
2022/12/10 14:17:50;;;;;;;;;;;-0.20;99.90;;;;;;5012248;28;204111;-72
2022/12/10 14:20:17;;;;;;;;;;;-0.10;99.90;;;;;;5059585;28;19925;-72
2022/12/10 14:22:47;;;;;;;;;;;-0.20;99.90;;;;;;5019629;28;191798;-73
2022/12/10 14:25:15;;;;;;;;;;;-0.10;99.90;;;;;;5068281;28;20050;-72
2022/12/10 14:27:41;;;;;;;;;;;-0.20;99.90;;;;;;5026402;28;140435;-72
2022/12/10 14:30:16;;;;;;;;;;;-0.20;99.90;;;;;;5049777;28;19927;-72
2022/12/10 14:32:42;;;;;;;;;;;-0.20;99.90;;;;;;5001084;28;189767;-72
2022/12/10 14:35:12;;;;;;;;;;;-0.20;99.90;;;;;;5040700;28;20389;-71
2022/12/10 14:37:40;;;;;;;;;;;-0.20;99.90;;;;;;5001367;28;198067;-71